EVA2770 ZUUU-ZGSZ
Flight info
| Callsign | EVA2770 |
|---|---|
| Flight time | N/A |
| Altitude | 35098 |
| Route | IDBOR9W IDBOR B330 KWE W181 DUDIT A599 POU W7 SAREX SAREX3 |
| Aircraft | B77W/H-SDE1E2E3FGHIJ2J3J4J5M1RWXY/LB1D1 |
Departure
| Time | 2026-04-30 08:30 |
|---|---|
| Airport | Chengdu Shuangliu International Airport (ZUUU) |
Arrival
| Time | N/A |
|---|---|
| Airport | Shenzhen Bao'an International Airport (ZGSZ) |
| Time | Latitude | Longitude | Altitude | Speed | Heading |
|---|---|---|---|---|---|
| 2026-04-30 08:08 | 30.57739 | 103.95248 | 1644 ft | 0 kts | 181° |
| 2026-04-30 08:17 | 30.57744 | 103.95248 | 1644 ft | 2 kts | 181° |
| 2026-04-30 08:17 | 30.57759 | 103.95248 | 1644 ft | 2 kts | 178° |
| 2026-04-30 08:17 | 30.57774 | 103.95246 | 1644 ft | 2 kts | 165° |
| 2026-04-30 08:18 | 30.57788 | 103.95241 | 1644 ft | 2 kts | 153° |
| 2026-04-30 08:18 | 30.57801 | 103.95232 | 1644 ft | 2 kts | 142° |
| 2026-04-30 08:18 | 30.57812 | 103.95220 | 1644 ft | 2 kts | 131° |
| 2026-04-30 08:18 | 30.57821 | 103.95207 | 1644 ft | 2 kts | 120° |
| 2026-04-30 08:19 | 30.57827 | 103.95191 | 1644 ft | 2 kts | 110° |
| 2026-04-30 08:19 | 30.57832 | 103.95174 | 1644 ft | 2 kts | 109° |
| 2026-04-30 08:19 | 30.57837 | 103.95158 | 1644 ft | 2 kts | 110° |
| 2026-04-30 08:19 | 30.57843 | 103.95141 | 1644 ft | 2 kts | 114° |
| 2026-04-30 08:20 | 30.57851 | 103.95126 | 1644 ft | 2 kts | 138° |
| 2026-04-30 08:20 | 30.57864 | 103.95116 | 1644 ft | 2 kts | 159° |
| 2026-04-30 08:20 | 30.57878 | 103.95113 | 1644 ft | 2 kts | 179° |
| 2026-04-30 08:20 | 30.57893 | 103.95115 | 1644 ft | 1 kts | 199° |
| 2026-04-30 08:21 | 30.57898 | 103.95117 | 1644 ft | 0 kts | 203° |
| 2026-04-30 08:24 | 30.57893 | 103.95115 | 1644 ft | 1 kts | 203° |
| 2026-04-30 08:24 | 30.57875 | 103.95106 | 1644 ft | 4 kts | 203° |
| 2026-04-30 08:24 | 30.57841 | 103.95089 | 1644 ft | 6 kts | 202° |
| 2026-04-30 08:24 | 30.57793 | 103.95067 | 1644 ft | 8 kts | 201° |
| 2026-04-30 08:25 | 30.57732 | 103.95040 | 1644 ft | 10 kts | 201° |
| 2026-04-30 08:25 | 30.57661 | 103.95007 | 1644 ft | 11 kts | 202° |
| 2026-04-30 08:25 | 30.57609 | 103.94935 | 1644 ft | 12 kts | 246° |
| 2026-04-30 08:25 | 30.57544 | 103.94863 | 1644 ft | 12 kts | 212° |
| 2026-04-30 08:26 | 30.57501 | 103.94775 | 1644 ft | 13 kts | 240° |
| 2026-04-30 08:26 | 30.57422 | 103.94714 | 1644 ft | 14 kts | 200° |
| 2026-04-30 08:26 | 30.57326 | 103.94672 | 1644 ft | 15 kts | 202° |
| 2026-04-30 08:26 | 30.57224 | 103.94624 | 1644 ft | 16 kts | 202° |
| 2026-04-30 08:27 | 30.57116 | 103.94573 | 1644 ft | 16 kts | 201° |
| 2026-04-30 08:27 | 30.57005 | 103.94523 | 1644 ft | 17 kts | 201° |
| 2026-04-30 08:27 | 30.56890 | 103.94469 | 1644 ft | 18 kts | 202° |
| 2026-04-30 08:27 | 30.56773 | 103.94414 | 1644 ft | 18 kts | 202° |
| 2026-04-30 08:28 | 30.56651 | 103.94357 | 1644 ft | 18 kts | 202° |
| 2026-04-30 08:28 | 30.56565 | 103.94285 | 1644 ft | 13 kts | 247° |
| 2026-04-30 08:28 | 30.56576 | 103.94187 | 1644 ft | 12 kts | 296° |
| 2026-04-30 08:28 | 30.56643 | 103.94144 | 1644 ft | 12 kts | 5° |
| 2026-04-30 08:29 | 30.56679 | 103.94157 | 1644 ft | 0 kts | 19° |
| 2026-04-30 08:29 | 30.56786 | 103.94204 | 1644 ft | 53 kts | 23° |
| 2026-04-30 08:29 | 30.57291 | 103.94441 | 1644 ft | 100 kts | 21° |
| 2026-04-30 08:29 | 30.58071 | 103.94805 | 1644 ft | 138 kts | 22° |
| 2026-04-30 08:30 | 30.59052 | 103.95276 | 1750 ft | 155 kts | 21° |
| 2026-04-30 08:30 | 30.60065 | 103.95753 | 2118 ft | 188 kts | 20° |
| 2026-04-30 08:30 | 30.61334 | 103.96309 | 2751 ft | 201 kts | 21° |
| 2026-04-30 08:30 | 30.62725 | 103.96964 | 3369 ft | 228 kts | 22° |
| 2026-04-30 08:31 | 30.64298 | 103.97703 | 3980 ft | 248 kts | 22° |
| 2026-04-30 08:31 | 30.65894 | 103.98447 | 4528 ft | 256 kts | 23° |
| 2026-04-30 08:31 | 30.67587 | 103.99236 | 5076 ft | 260 kts | 23° |
| 2026-04-30 08:31 | 30.69154 | 104.00299 | 5598 ft | 263 kts | 44° |
| 2026-04-30 08:32 | 30.70235 | 104.02014 | 6127 ft | 263 kts | 63° |
| 2026-04-30 08:32 | 30.71064 | 104.03853 | 6648 ft | 265 kts | 64° |
| 2026-04-30 08:32 | 30.71892 | 104.05731 | 7168 ft | 268 kts | 64° |
| 2026-04-30 08:32 | 30.72749 | 104.07678 | 7704 ft | 270 kts | 64° |
| 2026-04-30 08:33 | 30.73618 | 104.09654 | 8257 ft | 273 kts | 64° |
| 2026-04-30 08:33 | 30.74480 | 104.11613 | 8797 ft | 276 kts | 64° |
| 2026-04-30 08:33 | 30.75367 | 104.13632 | 9339 ft | 281 kts | 64° |
| 2026-04-30 08:33 | 30.76073 | 104.15757 | 9862 ft | 285 kts | 82° |
| 2026-04-30 08:34 | 30.76112 | 104.18031 | 10378 ft | 286 kts | 102° |
| 2026-04-30 08:34 | 30.75478 | 104.20136 | 10877 ft | 284 kts | 123° |
| 2026-04-30 08:34 | 30.74202 | 104.21907 | 11402 ft | 283 kts | 143° |
| 2026-04-30 08:34 | 30.72503 | 104.23015 | 11914 ft | 284 kts | 163° |
| 2026-04-30 08:35 | 30.70472 | 104.23364 | 12459 ft | 303 kts | 184° |
| 2026-04-30 08:35 | 30.68348 | 104.22809 | 13009 ft | 324 kts | 200° |
| 2026-04-30 08:35 | 30.66201 | 104.21811 | 13565 ft | 346 kts | 202° |
| 2026-04-30 08:35 | 30.63914 | 104.20701 | 14123 ft | 357 kts | 202° |
| 2026-04-30 08:36 | 30.61605 | 104.19576 | 14659 ft | 362 kts | 202° |
| 2026-04-30 08:36 | 30.59287 | 104.18446 | 15181 ft | 361 kts | 202° |
| 2026-04-30 08:36 | 30.56959 | 104.17313 | 15706 ft | 365 kts | 202° |
| 2026-04-30 08:36 | 30.54608 | 104.16167 | 16237 ft | 367 kts | 202° |
| 2026-04-30 08:37 | 30.52210 | 104.15001 | 16767 ft | 369 kts | 203° |
| 2026-04-30 08:37 | 30.49858 | 104.13857 | 17282 ft | 372 kts | 203° |
| 2026-04-30 08:37 | 30.47442 | 104.12683 | 17814 ft | 375 kts | 203° |
| 2026-04-30 08:37 | 30.44995 | 104.11517 | 18340 ft | 379 kts | 202° |
| 2026-04-30 08:38 | 30.42538 | 104.10372 | 18861 ft | 384 kts | 202° |
| 2026-04-30 08:38 | 30.40075 | 104.09225 | 19379 ft | 386 kts | 203° |
| 2026-04-30 08:38 | 30.37522 | 104.08036 | 19911 ft | 393 kts | 203° |
| 2026-04-30 08:38 | 30.34956 | 104.06936 | 20431 ft | 397 kts | 198° |
| 2026-04-30 08:39 | 30.32222 | 104.06229 | 20956 ft | 400 kts | 190° |
| 2026-04-30 08:39 | 30.29417 | 104.05998 | 21479 ft | 408 kts | 182° |
| 2026-04-30 08:39 | 30.26595 | 104.06249 | 21990 ft | 415 kts | 173° |
| 2026-04-30 08:39 | 30.23751 | 104.07014 | 22506 ft | 423 kts | 165° |
| 2026-04-30 08:40 | 30.20993 | 104.08298 | 23039 ft | 432 kts | 156° |
| 2026-04-30 08:40 | 30.18419 | 104.10081 | 23569 ft | 439 kts | 147° |
| 2026-04-30 08:40 | 30.16793 | 104.11518 | 23926 ft | 444 kts | 144° |
| 2026-04-30 08:40 | 30.13536 | 104.14523 | 24673 ft | 449 kts | 144° |
| 2026-04-30 08:41 | 30.11051 | 104.16801 | 25233 ft | 456 kts | 144° |
| 2026-04-30 08:41 | 30.08578 | 104.19051 | 25783 ft | 458 kts | 144° |
| 2026-04-30 08:41 | 30.06019 | 104.21366 | 26350 ft | 462 kts | 145° |
| 2026-04-30 08:41 | 30.03473 | 104.23660 | 26910 ft | 469 kts | 145° |
| 2026-04-30 08:42 | 30.00853 | 104.26014 | 27477 ft | 472 kts | 145° |
| 2026-04-30 08:42 | 29.98287 | 104.28313 | 28031 ft | 479 kts | 146° |
| 2026-04-30 08:42 | 29.95656 | 104.30667 | 28586 ft | 482 kts | 145° |
| 2026-04-30 08:42 | 29.92984 | 104.33054 | 29158 ft | 488 kts | 146° |
| 2026-04-30 08:43 | 29.90241 | 104.35502 | 29746 ft | 491 kts | 146° |
| 2026-04-30 08:43 | 29.87560 | 104.37891 | 30329 ft | 494 kts | 146° |
| 2026-04-30 08:43 | 29.84815 | 104.40334 | 30917 ft | 498 kts | 146° |
| 2026-04-30 08:43 | 29.82348 | 104.42529 | 31441 ft | 501 kts | 146° |
| 2026-04-30 08:44 | 29.79358 | 104.45186 | 32071 ft | 506 kts | 146° |
| 2026-04-30 08:44 | 29.76536 | 104.47692 | 32672 ft | 510 kts | 146° |
| 2026-04-30 08:44 | 29.73706 | 104.50203 | 33283 ft | 514 kts | 146° |
| 2026-04-30 08:44 | 29.70862 | 104.52724 | 33919 ft | 517 kts | 146° |
| 2026-04-30 08:45 | 29.68002 | 104.55257 | 34559 ft | 520 kts | 146° |
| 2026-04-30 08:45 | 29.65169 | 104.57765 | 35195 ft | 522 kts | 146° |
| 2026-04-30 08:45 | 29.62310 | 104.60294 | 35833 ft | 524 kts | 146° |
| 2026-04-30 08:45 | 29.59474 | 104.62802 | 36467 ft | 524 kts | 146° |
| 2026-04-30 08:46 | 29.56592 | 104.65348 | 37022 ft | 526 kts | 146° |
| 2026-04-30 08:46 | 29.50817 | 104.70441 | 37048 ft | 532 kts | 146° |
| 2026-04-30 08:47 | 29.45003 | 104.75565 | 37051 ft | 531 kts | 146° |
| 2026-04-30 08:47 | 29.39397 | 104.80496 | 37037 ft | 531 kts | 146° |
| 2026-04-30 08:48 | 29.33541 | 104.85390 | 37036 ft | 528 kts | 154° |
| 2026-04-30 08:48 | 29.27099 | 104.88937 | 37029 ft | 523 kts | 160° |
| 2026-04-30 08:49 | 29.20420 | 104.92313 | 37029 ft | 523 kts | 160° |
| 2026-04-30 08:49 | 29.13782 | 104.95659 | 37022 ft | 524 kts | 161° |
| 2026-04-30 08:50 | 29.07179 | 104.98992 | 37031 ft | 522 kts | 161° |
| 2026-04-30 08:50 | 29.00724 | 105.02251 | 37029 ft | 522 kts | 160° |
| 2026-04-30 08:51 | 28.94072 | 105.05605 | 37033 ft | 522 kts | 160° |
| 2026-04-30 08:51 | 28.87621 | 105.08835 | 37024 ft | 521 kts | 160° |
| 2026-04-30 08:52 | 28.80988 | 105.12148 | 37033 ft | 523 kts | 160° |
| 2026-04-30 08:52 | 28.74640 | 105.15466 | 37033 ft | 524 kts | 156° |
| 2026-04-30 08:53 | 28.68294 | 105.19376 | 37035 ft | 524 kts | 155° |
| 2026-04-30 08:53 | 28.61953 | 105.23266 | 37040 ft | 524 kts | 155° |
| 2026-04-30 08:54 | 28.55589 | 105.27142 | 37051 ft | 525 kts | 156° |
| 2026-04-30 08:54 | 28.49294 | 105.30958 | 37062 ft | 524 kts | 156° |
| 2026-04-30 08:55 | 28.42987 | 105.34769 | 37076 ft | 523 kts | 156° |
| 2026-04-30 08:55 | 28.36625 | 105.38603 | 37091 ft | 525 kts | 156° |
| 2026-04-30 08:56 | 28.30268 | 105.42427 | 37103 ft | 524 kts | 156° |
| 2026-04-30 08:56 | 28.24015 | 105.46182 | 37123 ft | 523 kts | 156° |
| 2026-04-30 08:57 | 28.17572 | 105.50045 | 37134 ft | 524 kts | 156° |
| 2026-04-30 08:57 | 28.11447 | 105.53711 | 37136 ft | 524 kts | 156° |
| 2026-04-30 08:58 | 28.04833 | 105.57055 | 37128 ft | 514 kts | 168° |
| 2026-04-30 08:58 | 27.98232 | 105.58469 | 37137 ft | 512 kts | 176° |
| 2026-04-30 08:59 | 27.91146 | 105.59612 | 37139 ft | 507 kts | 176° |
| 2026-04-30 08:59 | 27.84280 | 105.60707 | 37138 ft | 508 kts | 176° |
| 2026-04-30 09:00 | 27.77552 | 105.62897 | 37120 ft | 518 kts | 159° |
| 2026-04-30 09:00 | 27.71429 | 105.66514 | 37111 ft | 524 kts | 156° |
| 2026-04-30 09:01 | 27.64925 | 105.70384 | 37137 ft | 521 kts | 159° |
| 2026-04-30 09:01 | 27.58721 | 105.73717 | 37145 ft | 520 kts | 159° |
| 2026-04-30 09:02 | 27.48843 | 105.79021 | 37169 ft | 521 kts | 159° |
| 2026-04-30 09:02 | 27.42496 | 105.82434 | 37179 ft | 521 kts | 159° |
| 2026-04-30 09:03 | 27.36011 | 105.85922 | 37193 ft | 521 kts | 159° |
| 2026-04-30 09:03 | 27.29688 | 105.89320 | 37203 ft | 522 kts | 159° |
| 2026-04-30 09:04 | 27.23229 | 105.92788 | 37202 ft | 521 kts | 159° |
| 2026-04-30 09:04 | 27.16854 | 105.96207 | 37207 ft | 521 kts | 159° |
| 2026-04-30 09:05 | 27.10426 | 105.99651 | 37217 ft | 522 kts | 159° |
| 2026-04-30 09:05 | 27.04381 | 106.03854 | 37209 ft | 531 kts | 143° |
| 2026-04-30 09:06 | 26.99443 | 106.09860 | 37210 ft | 536 kts | 129° |
| 2026-04-30 09:06 | 26.95226 | 106.16174 | 37213 ft | 538 kts | 129° |
| 2026-04-30 09:07 | 26.91858 | 106.21210 | 37214 ft | 538 kts | 129° |
| 2026-04-30 09:07 | 26.87404 | 106.27840 | 37212 ft | 539 kts | 129° |
| 2026-04-30 09:08 | 26.82883 | 106.34547 | 37218 ft | 539 kts | 129° |
| 2026-04-30 09:08 | 26.78650 | 106.40809 | 37220 ft | 539 kts | 129° |
| 2026-04-30 09:09 | 26.74013 | 106.47653 | 37216 ft | 540 kts | 129° |
| 2026-04-30 09:09 | 26.69577 | 106.54190 | 37215 ft | 538 kts | 129° |
| 2026-04-30 09:10 | 26.65138 | 106.60720 | 37215 ft | 538 kts | 129° |
| 2026-04-30 09:10 | 26.60801 | 106.67090 | 37217 ft | 538 kts | 129° |
| 2026-04-30 09:11 | 26.56244 | 106.73772 | 37218 ft | 538 kts | 129° |
| 2026-04-30 09:11 | 26.51876 | 106.79926 | 37229 ft | 537 kts | 136° |
| 2026-04-30 09:12 | 26.46559 | 106.85871 | 37223 ft | 535 kts | 138° |
| 2026-04-30 09:12 | 26.41375 | 106.91560 | 37228 ft | 535 kts | 138° |
| 2026-04-30 09:13 | 26.36215 | 106.97220 | 37218 ft | 535 kts | 138° |
| 2026-04-30 09:13 | 26.31276 | 107.02631 | 37215 ft | 535 kts | 138° |
| 2026-04-30 09:14 | 26.25863 | 107.08567 | 37216 ft | 537 kts | 138° |
| 2026-04-30 09:14 | 26.20736 | 107.14201 | 37210 ft | 534 kts | 138° |
| 2026-04-30 09:15 | 26.15465 | 107.19984 | 37203 ft | 536 kts | 137° |
| 2026-04-30 09:15 | 26.10201 | 107.25752 | 37195 ft | 536 kts | 138° |
| 2026-04-30 09:16 | 26.04998 | 107.31445 | 37193 ft | 535 kts | 137° |
| 2026-04-30 09:16 | 25.99819 | 107.37105 | 37191 ft | 537 kts | 138° |
| 2026-04-30 09:17 | 25.94589 | 107.42812 | 37188 ft | 535 kts | 137° |
| 2026-04-30 09:17 | 25.89375 | 107.48494 | 37184 ft | 535 kts | 137° |
| 2026-04-30 09:18 | 25.84086 | 107.54250 | 37185 ft | 534 kts | 137° |
| 2026-04-30 09:18 | 25.78810 | 107.59983 | 37184 ft | 546 kts | 137° |
| 2026-04-30 09:19 | 25.73506 | 107.65740 | 37178 ft | 551 kts | 138° |
| 2026-04-30 09:19 | 25.68033 | 107.71704 | 37164 ft | 550 kts | 137° |
| 2026-04-30 09:20 | 25.62631 | 107.77624 | 37161 ft | 551 kts | 137° |
| 2026-04-30 09:20 | 25.57280 | 107.83478 | 37161 ft | 550 kts | 137° |
| 2026-04-30 09:21 | 25.51888 | 107.89349 | 37150 ft | 548 kts | 139° |
| 2026-04-30 09:21 | 25.45670 | 107.94212 | 37156 ft | 542 kts | 156° |
| 2026-04-30 09:22 | 25.38755 | 107.96914 | 37155 ft | 533 kts | 173° |
| 2026-04-30 09:22 | 25.31513 | 107.97993 | 37163 ft | 530 kts | 177° |
| 2026-04-30 09:23 | 25.24331 | 107.98894 | 37166 ft | 528 kts | 177° |
| 2026-04-30 09:23 | 25.17150 | 107.99782 | 37162 ft | 527 kts | 178° |
| 2026-04-30 09:24 | 25.10018 | 108.00658 | 37152 ft | 526 kts | 177° |
| 2026-04-30 09:24 | 25.02781 | 108.01542 | 37143 ft | 527 kts | 178° |
| 2026-04-30 09:25 | 24.95597 | 108.02417 | 37136 ft | 527 kts | 177° |
| 2026-04-30 09:25 | 24.88308 | 108.03303 | 37130 ft | 528 kts | 177° |
| 2026-04-30 09:26 | 24.81079 | 108.04180 | 37130 ft | 527 kts | 177° |
| 2026-04-30 09:26 | 24.73825 | 108.05059 | 37128 ft | 526 kts | 177° |
| 2026-04-30 09:27 | 24.66575 | 108.05936 | 37119 ft | 526 kts | 177° |
| 2026-04-30 09:27 | 24.59475 | 108.06795 | 37115 ft | 526 kts | 177° |
| 2026-04-30 09:28 | 24.52259 | 108.07666 | 37110 ft | 526 kts | 177° |
| 2026-04-30 09:28 | 24.44972 | 108.08553 | 37112 ft | 527 kts | 176° |
| 2026-04-30 09:29 | 24.37784 | 108.09428 | 37106 ft | 525 kts | 176° |
| 2026-04-30 09:29 | 24.30633 | 108.10297 | 37101 ft | 525 kts | 176° |
| 2026-04-30 09:30 | 24.23474 | 108.11165 | 37096 ft | 524 kts | 176° |
| 2026-04-30 09:30 | 24.16287 | 108.12035 | 37099 ft | 524 kts | 176° |
| 2026-04-30 09:31 | 24.09092 | 108.12906 | 37096 ft | 526 kts | 176° |
| 2026-04-30 09:31 | 24.01908 | 108.13835 | 37087 ft | 527 kts | 172° |
| 2026-04-30 09:32 | 23.94923 | 108.16342 | 37090 ft | 533 kts | 155° |
| 2026-04-30 09:32 | 23.88844 | 108.20896 | 37087 ft | 538 kts | 139° |
| 2026-04-30 09:33 | 23.84088 | 108.27171 | 37090 ft | 540 kts | 122° |
| 2026-04-30 09:33 | 23.81096 | 108.34653 | 37094 ft | 543 kts | 105° |
| 2026-04-30 09:34 | 23.80089 | 108.42486 | 37102 ft | 542 kts | 91° |
| 2026-04-30 09:34 | 23.79833 | 108.50685 | 37107 ft | 541 kts | 91° |
| 2026-04-30 09:35 | 23.79501 | 108.58732 | 37111 ft | 542 kts | 92° |
| 2026-04-30 09:35 | 23.79105 | 108.66844 | 37106 ft | 541 kts | 92° |
| 2026-04-30 09:36 | 23.78665 | 108.75065 | 37101 ft | 542 kts | 92° |
| 2026-04-30 09:36 | 23.78215 | 108.83072 | 37102 ft | 542 kts | 92° |
| 2026-04-30 09:37 | 23.77740 | 108.91247 | 37089 ft | 543 kts | 92° |
| 2026-04-30 09:37 | 23.77269 | 108.99176 | 37087 ft | 543 kts | 93° |
| 2026-04-30 09:38 | 23.76778 | 109.07327 | 37092 ft | 544 kts | 93° |
| 2026-04-30 09:38 | 23.76115 | 109.15488 | 37081 ft | 543 kts | 99° |
| 2026-04-30 09:39 | 23.74607 | 109.23302 | 37087 ft | 543 kts | 102° |
| 2026-04-30 09:39 | 23.72986 | 109.31338 | 37086 ft | 544 kts | 102° |
| 2026-04-30 09:40 | 23.71385 | 109.39258 | 37089 ft | 544 kts | 102° |
| 2026-04-30 09:40 | 23.69775 | 109.47203 | 37089 ft | 543 kts | 102° |
| 2026-04-30 09:41 | 23.68227 | 109.54822 | 37094 ft | 543 kts | 102° |
| 2026-04-30 09:41 | 23.66598 | 109.62824 | 37101 ft | 544 kts | 102° |
| 2026-04-30 09:42 | 23.64949 | 109.70830 | 37097 ft | 543 kts | 103° |
| 2026-04-30 09:42 | 23.63301 | 109.78806 | 37105 ft | 544 kts | 103° |
| 2026-04-30 09:43 | 23.61665 | 109.86708 | 37109 ft | 543 kts | 103° |
| 2026-04-30 09:43 | 23.60035 | 109.94556 | 37117 ft | 543 kts | 103° |
| 2026-04-30 09:44 | 23.58385 | 110.02483 | 37123 ft | 543 kts | 103° |
| 2026-04-30 09:44 | 23.56758 | 110.10276 | 37118 ft | 543 kts | 103° |
| 2026-04-30 09:45 | 23.55135 | 110.18031 | 37107 ft | 543 kts | 103° |
| 2026-04-30 09:45 | 23.53456 | 110.26032 | 37094 ft | 543 kts | 103° |
| 2026-04-30 09:46 | 23.51821 | 110.33805 | 37094 ft | 544 kts | 103° |
| 2026-04-30 09:46 | 23.50191 | 110.41683 | 37091 ft | 542 kts | 102° |
| 2026-04-30 09:47 | 23.48616 | 110.49456 | 37089 ft | 544 kts | 102° |
| 2026-04-30 09:47 | 23.46989 | 110.57455 | 37093 ft | 542 kts | 102° |
| 2026-04-30 09:48 | 23.45408 | 110.65197 | 37095 ft | 543 kts | 103° |
| 2026-04-30 09:48 | 23.43780 | 110.73143 | 37085 ft | 543 kts | 103° |
| 2026-04-30 09:49 | 23.42109 | 110.81095 | 37090 ft | 543 kts | 103° |
| 2026-04-30 09:49 | 23.40427 | 110.89050 | 37091 ft | 543 kts | 103° |
| 2026-04-30 09:50 | 23.38760 | 110.96920 | 37091 ft | 543 kts | 103° |
| 2026-04-30 09:50 | 23.37101 | 111.04732 | 37093 ft | 543 kts | 103° |
| 2026-04-30 09:51 | 23.35440 | 111.12537 | 37092 ft | 544 kts | 103° |
| 2026-04-30 09:51 | 23.33801 | 111.20391 | 37091 ft | 544 kts | 103° |
| 2026-04-30 09:52 | 23.32226 | 111.28127 | 37091 ft | 544 kts | 102° |
| 2026-04-30 09:52 | 23.30589 | 111.36128 | 37089 ft | 545 kts | 103° |
| 2026-04-30 09:53 | 23.28953 | 111.44097 | 37084 ft | 545 kts | 103° |
| 2026-04-30 09:53 | 23.27292 | 111.52161 | 37085 ft | 544 kts | 103° |
| 2026-04-30 09:54 | 23.25636 | 111.60053 | 37087 ft | 545 kts | 103° |
| 2026-04-30 09:54 | 23.23989 | 111.67828 | 37088 ft | 545 kts | 103° |
| 2026-04-30 09:55 | 23.22709 | 111.73854 | 37090 ft | 544 kts | 103° |